sensor_id;sensor_type;location;lat;lon;timestamp;temperature;humidity
12307;DHT22;6216;51.146;7.008;2022-07-11T00:02:21;19.40;99.90
12307;DHT22;6216;51.146;7.008;2022-07-11T00:04:50;19.40;99.90
12307;DHT22;6216;51.146;7.008;2022-07-11T00:07:18;19.40;99.90
12307;DHT22;6216;51.146;7.008;2022-07-11T00:09:47;19.40;99.90
12307;DHT22;6216;51.146;7.008;2022-07-11T00:12:15;19.40;99.90
12307;DHT22;6216;51.146;7.008;2022-07-11T00:14:42;19.40;99.90
12307;DHT22;6216;51.146;7.008;2022-07-11T00:17:10;19.40;99.90
12307;DHT22;6216;51.146;7.008;2022-07-11T00:19:38;19.40;99.90
12307;DHT22;6216;51.146;7.008;2022-07-11T00:22:07;19.40;99.90
12307;DHT22;6216;51.146;7.008;2022-07-11T00:24:35;19.40;99.90
12307;DHT22;6216;51.146;7.008;2022-07-11T00:27:04;19.40;99.90
12307;DHT22;6216;51.146;7.008;2022-07-11T00:29:32;19.40;99.90
12307;DHT22;6216;51.146;7.008;2022-07-11T00:32:00;19.40;99.90
12307;DHT22;6216;51.146;7.008;2022-07-11T00:34:28;19.40;99.90
12307;DHT22;6216;51.146;7.008;2022-07-11T00:36:56;19.40;99.90
12307;DHT22;6216;51.146;7.008;2022-07-11T00:39:25;19.40;99.90
12307;DHT22;6216;51.146;7.008;2022-07-11T00:41:53;19.40;99.90
12307;DHT22;6216;51.146;7.008;2022-07-11T00:44:20;19.30;99.90
12307;DHT22;6216;51.146;7.008;2022-07-11T00:46:48;19.30;99.90
12307;DHT22;6216;51.146;7.008;2022-07-11T00:49:16;19.30;99.90
12307;DHT22;6216;51.146;7.008;2022-07-11T00:51:44;19.30;99.90
12307;DHT22;6216;51.146;7.008;2022-07-11T00:54:13;19.20;99.90
12307;DHT22;6216;51.146;7.008;2022-07-11T00:56:43;19.20;99.90
12307;DHT22;6216;51.146;7.008;2022-07-11T00:59:11;19.20;99.90
12307;DHT22;6216;51.146;7.008;2022-07-11T01:01:39;19.20;99.90
12307;DHT22;6216;51.146;7.008;2022-07-11T01:04:07;19.20;99.90
12307;DHT22;6216;51.146;7.008;2022-07-11T01:06:35;19.20;99.90
12307;DHT22;6216;51.146;7.008;2022-07-11T01:09:03;19.20;99.90
12307;DHT22;6216;51.146;7.008;2022-07-11T01:11:31;19.20;99.90
12307;DHT22;6216;51.146;7.008;2022-07-11T01:14:00;19.10;99.90
12307;DHT22;6216;51.146;7.008;2022-07-11T01:16:28;19.10;99.90
12307;DHT22;6216;51.146;7.008;2022-07-11T01:18:56;19.10;99.90
12307;DHT22;6216;51.146;7.008;2022-07-11T01:21:26;19.10;99.90
12307;DHT22;6216;51.146;7.008;2022-07-11T01:23:56;19.10;99.90
12307;DHT22;6216;51.146;7.008;2022-07-11T01:26:26;19.10;99.90
12307;DHT22;6216;51.146;7.008;2022-07-11T01:28:54;19.10;99.90
12307;DHT22;6216;51.146;7.008;2022-07-11T01:31:23;19.10;99.90
12307;DHT22;6216;51.146;7.008;2022-07-11T01:33:53;19.10;99.90
12307;DHT22;6216;51.146;7.008;2022-07-11T01:36:21;19.10;99.90
12307;DHT22;6216;51.146;7.008;2022-07-11T01:38:49;19.00;99.90
12307;DHT22;6216;51.146;7.008;2022-07-11T01:41:18;19.00;99.90
12307;DHT22;6216;51.146;7.008;2022-07-11T01:43:46;19.00;99.90
12307;DHT22;6216;51.146;7.008;2022-07-11T01:46:13;19.00;99.90
12307;DHT22;6216;51.146;7.008;2022-07-11T01:48:42;18.90;99.90
12307;DHT22;6216;51.146;7.008;2022-07-11T01:51:10;18.80;99.90
12307;DHT22;6216;51.146;7.008;2022-07-11T01:53:37;18.70;99.90
12307;DHT22;6216;51.146;7.008;2022-07-11T01:56:06;18.70;99.90
12307;DHT22;6216;51.146;7.008;2022-07-11T01:58:55;18.70;99.90
12307;DHT22;6216;51.146;7.008;2022-07-11T02:01:23;18.60;99.90
12307;DHT22;6216;51.146;7.008;2022-07-11T02:03:51;18.60;99.90
12307;DHT22;6216;51.146;7.008;2022-07-11T02:06:19;18.60;99.90
12307;DHT22;6216;51.146;7.008;2022-07-11T02:08:47;18.50;99.90
12307;DHT22;6216;51.146;7.008;2022-07-11T02:11:14;18.40;99.90
12307;DHT22;6216;51.146;7.008;2022-07-11T02:13:42;18.40;99.90
12307;DHT22;6216;51.146;7.008;2022-07-11T02:16:12;18.40;99.90
12307;DHT22;6216;51.146;7.008;2022-07-11T02:18:40;18.40;99.90
12307;DHT22;6216;51.146;7.008;2022-07-11T02:21:08;18.40;99.90
12307;DHT22;6216;51.146;7.008;2022-07-11T02:23:36;18.40;99.90
12307;DHT22;6216;51.146;7.008;2022-07-11T02:26:04;18.40;99.90
12307;DHT22;6216;51.146;7.008;2022-07-11T02:28:32;18.40;99.90
12307;DHT22;6216;51.146;7.008;2022-07-11T02:31:00;18.40;99.90
12307;DHT22;6216;51.146;7.008;2022-07-11T02:33:31;18.40;99.90
12307;DHT22;6216;51.146;7.008;2022-07-11T02:35:58;18.40;99.90
12307;DHT22;6216;51.146;7.008;2022-07-11T02:38:26;18.50;99.90
12307;DHT22;6216;51.146;7.008;2022-07-11T02:40:54;18.50;99.90
12307;DHT22;6216;51.146;7.008;2022-07-11T02:43:22;18.50;99.90
12307;DHT22;6216;51.146;7.008;2022-07-11T02:45:50;18.50;99.90
12307;DHT22;6216;51.146;7.008;2022-07-11T02:48:18;18.50;99.90
12307;DHT22;6216;51.146;7.008;2022-07-11T02:50:47;18.50;99.90
12307;DHT22;6216;51.146;7.008;2022-07-11T02:53:15;18.50;99.90
12307;DHT22;6216;51.146;7.008;2022-07-11T02:55:43;18.50;99.90
12307;DHT22;6216;51.146;7.008;2022-07-11T02:58:11;18.40;99.90
12307;DHT22;6216;51.146;7.008;2022-07-11T03:00:39;18.40;99.90
12307;DHT22;6216;51.146;7.008;2022-07-11T03:03:07;18.40;99.90
12307;DHT22;6216;51.146;7.008;2022-07-11T03:05:34;18.40;99.90
12307;DHT22;6216;51.146;7.008;2022-07-11T03:08:04;18.40;99.90
12307;DHT22;6216;51.146;7.008;2022-07-11T03:10:32;18.40;99.90
12307;DHT22;6216;51.146;7.008;2022-07-11T03:12:59;18.40;99.90
12307;DHT22;6216;51.146;7.008;2022-07-11T03:15:27;18.40;99.90
12307;DHT22;6216;51.146;7.008;2022-07-11T03:17:55;18.50;99.90
12307;DHT22;6216;51.146;7.008;2022-07-11T03:20:23;18.40;99.90
12307;DHT22;6216;51.146;7.008;2022-07-11T03:22:51;18.50;99.90
12307;DHT22;6216;51.146;7.008;2022-07-11T03:25:20;18.50;99.90
12307;DHT22;6216;51.146;7.008;2022-07-11T03:27:48;18.50;99.90
12307;DHT22;6216;51.146;7.008;2022-07-11T03:30:16;18.50;99.90
12307;DHT22;6216;51.146;7.008;2022-07-11T03:32:43;18.50;99.90
12307;DHT22;6216;51.146;7.008;2022-07-11T03:35:11;18.50;99.90
12307;DHT22;6216;51.146;7.008;2022-07-11T03:37:56;18.50;99.90
12307;DHT22;6216;51.146;7.008;2022-07-11T03:40:26;18.50;99.90
12307;DHT22;6216;51.146;7.008;2022-07-11T03:42:54;18.50;99.90
12307;DHT22;6216;51.146;7.008;2022-07-11T03:45:22;18.50;99.90
12307;DHT22;6216;51.146;7.008;2022-07-11T03:47:50;18.50;99.90
12307;DHT22;6216;51.146;7.008;2022-07-11T03:50:18;18.50;99.90
12307;DHT22;6216;51.146;7.008;2022-07-11T03:52:46;18.50;99.90
12307;DHT22;6216;51.146;7.008;2022-07-11T03:55:14;18.50;99.90
12307;DHT22;6216;51.146;7.008;2022-07-11T03:57:45;18.50;99.90
12307;DHT22;6216;51.146;7.008;2022-07-11T04:00:13;18.50;99.90
12307;DHT22;6216;51.146;7.008;2022-07-11T04:02:41;18.50;99.90
12307;DHT22;6216;51.146;7.008;2022-07-11T04:05:09;18.50;99.90
12307;DHT22;6216;51.146;7.008;2022-07-11T04:07:37;18.50;99.90
12307;DHT22;6216;51.146;7.008;2022-07-11T04:10:06;18.50;99.90
12307;DHT22;6216;51.146;7.008;2022-07-11T04:12:34;18.50;99.90
12307;DHT22;6216;51.146;7.008;2022-07-11T04:15:04;18.50;99.90
12307;DHT22;6216;51.146;7.008;2022-07-11T04:17:33;18.50;99.90
12307;DHT22;6216;51.146;7.008;2022-07-11T04:20:01;18.50;99.90
12307;DHT22;6216;51.146;7.008;2022-07-11T04:22:29;18.60;99.90
12307;DHT22;6216;51.146;7.008;2022-07-11T04:24:57;18.60;99.90
12307;DHT22;6216;51.146;7.008;2022-07-11T04:27:25;18.60;99.90
12307;DHT22;6216;51.146;7.008;2022-07-11T04:29:56;18.60;99.90
12307;DHT22;6216;51.146;7.008;2022-07-11T04:32:25;18.60;99.90
12307;DHT22;6216;51.146;7.008;2022-07-11T04:34:53;18.70;99.90
12307;DHT22;6216;51.146;7.008;2022-07-11T04:37:20;18.60;99.90
12307;DHT22;6216;51.146;7.008;2022-07-11T04:39:48;18.60;99.90
12307;DHT22;6216;51.146;7.008;2022-07-11T04:42:16;18.70;99.90
12307;DHT22;6216;51.146;7.008;2022-07-11T04:44:44;18.70;99.90
12307;DHT22;6216;51.146;7.008;2022-07-11T04:47:12;18.70;99.90
12307;DHT22;6216;51.146;7.008;2022-07-11T04:49:41;18.70;99.90
12307;DHT22;6216;51.146;7.008;2022-07-11T04:52:13;18.70;99.90
12307;DHT22;6216;51.146;7.008;2022-07-11T04:54:41;18.70;99.90
12307;DHT22;6216;51.146;7.008;2022-07-11T04:57:09;18.70;99.90
12307;DHT22;6216;51.146;7.008;2022-07-11T04:59:36;18.70;99.90
12307;DHT22;6216;51.146;7.008;2022-07-11T05:02:05;18.70;99.90
12307;DHT22;6216;51.146;7.008;2022-07-11T05:04:33;18.70;99.90
12307;DHT22;6216;51.146;7.008;2022-07-11T05:07:02;18.80;99.90
12307;DHT22;6216;51.146;7.008;2022-07-11T05:09:30;18.80;99.90
12307;DHT22;6216;51.146;7.008;2022-07-11T05:11:59;18.80;99.90
12307;DHT22;6216;51.146;7.008;2022-07-11T05:14:27;18.80;99.90
12307;DHT22;6216;51.146;7.008;2022-07-11T05:16:55;18.80;99.90
12307;DHT22;6216;51.146;7.008;2022-07-11T05:19:23;18.80;99.90
12307;DHT22;6216;51.146;7.008;2022-07-11T05:21:51;18.80;99.90
12307;DHT22;6216;51.146;7.008;2022-07-11T05:24:20;18.80;99.90
12307;DHT22;6216;51.146;7.008;2022-07-11T05:26:48;18.80;99.90
12307;DHT22;6216;51.146;7.008;2022-07-11T05:29:16;18.80;99.90
12307;DHT22;6216;51.146;7.008;2022-07-11T05:31:43;18.90;99.90
12307;DHT22;6216;51.146;7.008;2022-07-11T05:34:17;18.90;99.90
12307;DHT22;6216;51.146;7.008;2022-07-11T05:36:44;18.90;99.90
12307;DHT22;6216;51.146;7.008;2022-07-11T05:39:12;19.00;99.90
12307;DHT22;6216;51.146;7.008;2022-07-11T05:41:43;19.00;99.90
12307;DHT22;6216;51.146;7.008;2022-07-11T05:44:11;19.00;99.90
12307;DHT22;6216;51.146;7.008;2022-07-11T05:46:38;19.00;99.90
12307;DHT22;6216;51.146;7.008;2022-07-11T05:49:07;19.00;99.90
12307;DHT22;6216;51.146;7.008;2022-07-11T05:51:35;19.00;99.90
12307;DHT22;6216;51.146;7.008;2022-07-11T05:54:03;19.00;99.90
12307;DHT22;6216;51.146;7.008;2022-07-11T05:56:31;19.10;99.90
12307;DHT22;6216;51.146;7.008;2022-07-11T05:59:00;19.00;99.90
12307;DHT22;6216;51.146;7.008;2022-07-11T06:01:28;19.00;99.90
12307;DHT22;6216;51.146;7.008;2022-07-11T06:04:03;19.00;99.90
12307;DHT22;6216;51.146;7.008;2022-07-11T06:06:31;19.10;99.90
12307;DHT22;6216;51.146;7.008;2022-07-11T06:08:59;19.10;99.90
12307;DHT22;6216;51.146;7.008;2022-07-11T06:11:27;19.10;99.90
12307;DHT22;6216;51.146;7.008;2022-07-11T06:13:55;19.10;99.90
12307;DHT22;6216;51.146;7.008;2022-07-11T06:16:28;19.10;99.90
12307;DHT22;6216;51.146;7.008;2022-07-11T06:18:56;19.10;99.90
12307;DHT22;6216;51.146;7.008;2022-07-11T06:21:25;19.10;99.90
12307;DHT22;6216;51.146;7.008;2022-07-11T06:23:53;19.20;99.90
12307;DHT22;6216;51.146;7.008;2022-07-11T06:26:22;19.20;99.90
12307;DHT22;6216;51.146;7.008;2022-07-11T06:28:49;19.20;99.90
12307;DHT22;6216;51.146;7.008;2022-07-11T06:31:17;19.30;99.90
12307;DHT22;6216;51.146;7.008;2022-07-11T06:33:46;19.30;99.90
12307;DHT22;6216;51.146;7.008;2022-07-11T06:36:22;19.30;99.90
12307;DHT22;6216;51.146;7.008;2022-07-11T06:38:50;19.30;99.90
12307;DHT22;6216;51.146;7.008;2022-07-11T06:41:19;19.30;99.90
12307;DHT22;6216;51.146;7.008;2022-07-11T06:43:48;19.30;99.90
12307;DHT22;6216;51.146;7.008;2022-07-11T06:46:16;19.30;99.90
12307;DHT22;6216;51.146;7.008;2022-07-11T06:48:44;19.40;99.90
12307;DHT22;6216;51.146;7.008;2022-07-11T06:51:13;19.40;99.90
12307;DHT22;6216;51.146;7.008;2022-07-11T06:53:41;19.50;99.90
12307;DHT22;6216;51.146;7.008;2022-07-11T06:56:10;19.50;99.90
12307;DHT22;6216;51.146;7.008;2022-07-11T06:58:38;19.50;99.90
12307;DHT22;6216;51.146;7.008;2022-07-11T07:01:06;19.60;99.90
12307;DHT22;6216;51.146;7.008;2022-07-11T07:03:35;19.60;99.90
12307;DHT22;6216;51.146;7.008;2022-07-11T07:06:04;19.60;99.90
12307;DHT22;6216;51.146;7.008;2022-07-11T07:08:34;19.60;99.90
12307;DHT22;6216;51.146;7.008;2022-07-11T07:11:02;19.70;99.90
12307;DHT22;6216;51.146;7.008;2022-07-11T07:13:35;19.70;99.90
12307;DHT22;6216;51.146;7.008;2022-07-11T07:16:03;19.80;99.90
12307;DHT22;6216;51.146;7.008;2022-07-11T07:18:33;19.90;99.90
12307;DHT22;6216;51.146;7.008;2022-07-11T07:21:02;20.00;99.90
12307;DHT22;6216;51.146;7.008;2022-07-11T07:23:30;20.00;99.90
12307;DHT22;6216;51.146;7.008;2022-07-11T07:26:00;20.10;99.90
12307;DHT22;6216;51.146;7.008;2022-07-11T07:28:28;20.00;99.90
12307;DHT22;6216;51.146;7.008;2022-07-11T07:30:57;20.00;99.90
12307;DHT22;6216;51.146;7.008;2022-07-11T07:33:25;20.00;99.90
12307;DHT22;6216;51.146;7.008;2022-07-11T07:36:10;19.90;99.90
12307;DHT22;6216;51.146;7.008;2022-07-11T07:38:38;20.00;99.90
12307;DHT22;6216;51.146;7.008;2022-07-11T07:41:10;20.00;99.90
12307;DHT22;6216;51.146;7.008;2022-07-11T07:43:38;20.00;99.90
12307;DHT22;6216;51.146;7.008;2022-07-11T07:46:06;20.00;99.90
12307;DHT22;6216;51.146;7.008;2022-07-11T07:48:35;20.00;99.90
12307;DHT22;6216;51.146;7.008;2022-07-11T07:51:03;20.00;99.90
12307;DHT22;6216;51.146;7.008;2022-07-11T07:53:31;20.00;99.90
12307;DHT22;6216;51.146;7.008;2022-07-11T07:55:59;20.10;99.90
12307;DHT22;6216;51.146;7.008;2022-07-11T07:58:28;20.10;99.90
12307;DHT22;6216;51.146;7.008;2022-07-11T08:00:56;20.10;99.90
12307;DHT22;6216;51.146;7.008;2022-07-11T08:03:38;20.20;99.90
12307;DHT22;6216;51.146;7.008;2022-07-11T08:06:06;20.30;99.90
12307;DHT22;6216;51.146;7.008;2022-07-11T08:08:34;20.20;99.90
12307;DHT22;6216;51.146;7.008;2022-07-11T08:11:02;20.30;99.90
12307;DHT22;6216;51.146;7.008;2022-07-11T08:13:51;20.30;99.90
12307;DHT22;6216;51.146;7.008;2022-07-11T08:16:19;20.30;99.90
12307;DHT22;6216;51.146;7.008;2022-07-11T08:18:47;20.30;99.90
12307;DHT22;6216;51.146;7.008;2022-07-11T08:21:15;20.20;99.90
12307;DHT22;6216;51.146;7.008;2022-07-11T08:23:43;20.30;99.90
12307;DHT22;6216;51.146;7.008;2022-07-11T08:26:11;20.40;99.90
12307;DHT22;6216;51.146;7.008;2022-07-11T08:28:39;20.60;99.90
12307;DHT22;6216;51.146;7.008;2022-07-11T08:31:08;20.50;99.90
12307;DHT22;6216;51.146;7.008;2022-07-11T08:33:36;20.60;99.90
12307;DHT22;6216;51.146;7.008;2022-07-11T08:36:05;20.60;99.90
12307;DHT22;6216;51.146;7.008;2022-07-11T08:38:33;20.70;99.90
12307;DHT22;6216;51.146;7.008;2022-07-11T08:41:01;20.70;99.90
12307;DHT22;6216;51.146;7.008;2022-07-11T08:43:30;20.70;99.90
12307;DHT22;6216;51.146;7.008;2022-07-11T08:45:59;20.70;99.90
12307;DHT22;6216;51.146;7.008;2022-07-11T08:48:29;20.70;99.90
12307;DHT22;6216;51.146;7.008;2022-07-11T08:50:59;20.70;99.90
12307;DHT22;6216;51.146;7.008;2022-07-11T08:53:27;20.70;99.90
12307;DHT22;6216;51.146;7.008;2022-07-11T08:55:56;20.70;99.90
12307;DHT22;6216;51.146;7.008;2022-07-11T08:58:24;20.70;99.90
12307;DHT22;6216;51.146;7.008;2022-07-11T09:00:53;20.80;99.90
12307;DHT22;6216;51.146;7.008;2022-07-11T09:03:22;20.70;99.90
12307;DHT22;6216;51.146;7.008;2022-07-11T09:05:51;20.70;99.90
12307;DHT22;6216;51.146;7.008;2022-07-11T09:08:28;20.70;99.90
12307;DHT22;6216;51.146;7.008;2022-07-11T09:10:57;20.70;99.90
12307;DHT22;6216;51.146;7.008;2022-07-11T09:13:28;20.60;99.90
12307;DHT22;6216;51.146;7.008;2022-07-11T09:16:01;20.60;99.90
12307;DHT22;6216;51.146;7.008;2022-07-11T09:18:31;20.70;99.90
12307;DHT22;6216;51.146;7.008;2022-07-11T09:21:02;20.70;99.90
12307;DHT22;6216;51.146;7.008;2022-07-11T09:23:49;20.80;99.90
12307;DHT22;6216;51.146;7.008;2022-07-11T09:26:35;20.80;99.90
12307;DHT22;6216;51.146;7.008;2022-07-11T09:29:06;20.80;99.90
12307;DHT22;6216;51.146;7.008;2022-07-11T09:31:36;20.80;99.90
12307;DHT22;6216;51.146;7.008;2022-07-11T09:34:06;20.90;99.90
12307;DHT22;6216;51.146;7.008;2022-07-11T09:36:39;20.80;99.90
12307;DHT22;6216;51.146;7.008;2022-07-11T09:39:10;20.80;99.90
12307;DHT22;6216;51.146;7.008;2022-07-11T09:41:39;20.90;99.90
12307;DHT22;6216;51.146;7.008;2022-07-11T09:44:08;20.90;99.90
12307;DHT22;6216;51.146;7.008;2022-07-11T09:46:36;20.90;99.90
12307;DHT22;6216;51.146;7.008;2022-07-11T09:49:05;21.00;99.90
12307;DHT22;6216;51.146;7.008;2022-07-11T09:51:34;21.10;99.90
12307;DHT22;6216;51.146;7.008;2022-07-11T09:54:05;21.10;99.90
12307;DHT22;6216;51.146;7.008;2022-07-11T09:56:35;21.20;99.90
12307;DHT22;6216;51.146;7.008;2022-07-11T09:59:22;21.20;99.90
12307;DHT22;6216;51.146;7.008;2022-07-11T10:01:51;21.30;99.90
12307;DHT22;6216;51.146;7.008;2022-07-11T10:04:19;21.50;99.90
12307;DHT22;6216;51.146;7.008;2022-07-11T10:06:48;21.80;99.90
12307;DHT22;6216;51.146;7.008;2022-07-11T10:09:17;22.10;99.90
12307;DHT22;6216;51.146;7.008;2022-07-11T10:11:45;22.30;99.90
12307;DHT22;6216;51.146;7.008;2022-07-11T10:14:13;22.20;99.90
12307;DHT22;6216;51.146;7.008;2022-07-11T10:16:48;22.10;99.90
12307;DHT22;6216;51.146;7.008;2022-07-11T10:19:33;22.10;99.90
12307;DHT22;6216;51.146;7.008;2022-07-11T10:22:25;22.30;99.90
12307;DHT22;6216;51.146;7.008;2022-07-11T10:25:00;22.40;99.90
12307;DHT22;6216;51.146;7.008;2022-07-11T10:27:34;22.30;99.90
12307;DHT22;6216;51.146;7.008;2022-07-11T10:30:07;22.10;99.90
12307;DHT22;6216;51.146;7.008;2022-07-11T10:32:59;21.90;99.90
12307;DHT22;6216;51.146;7.008;2022-07-11T10:35:29;21.70;99.90
12307;DHT22;6216;51.146;7.008;2022-07-11T10:37:57;21.50;99.90
12307;DHT22;6216;51.146;7.008;2022-07-11T10:40:44;21.40;99.90
12307;DHT22;6216;51.146;7.008;2022-07-11T10:43:31;21.30;99.90
12307;DHT22;6216;51.146;7.008;2022-07-11T10:46:02;21.20;99.90
12307;DHT22;6216;51.146;7.008;2022-07-11T10:48:32;21.20;99.90
12307;DHT22;6216;51.146;7.008;2022-07-11T10:51:08;21.10;99.90
12307;DHT22;6216;51.146;7.008;2022-07-11T10:53:41;21.20;99.90
12307;DHT22;6216;51.146;7.008;2022-07-11T10:56:27;21.20;99.90
12307;DHT22;6216;51.146;7.008;2022-07-11T10:59:16;21.30;99.90
12307;DHT22;6216;51.146;7.008;2022-07-11T11:02:02;21.40;99.90
12307;DHT22;6216;51.146;7.008;2022-07-11T11:04:57;21.40;99.90
12307;DHT22;6216;51.146;7.008;2022-07-11T11:13:18;22.00;99.90
12307;DHT22;6216;51.146;7.008;2022-07-11T11:15:49;22.00;99.90
12307;DHT22;6216;51.146;7.008;2022-07-11T11:18:41;22.10;99.90
12307;DHT22;6216;51.146;7.008;2022-07-11T11:21:16;22.10;99.90
12307;DHT22;6216;51.146;7.008;2022-07-11T11:23:46;22.10;99.90
12307;DHT22;6216;51.146;7.008;2022-07-11T11:26:47;22.10;99.90
12307;DHT22;6216;51.146;7.008;2022-07-11T11:29:26;22.20;99.90
12307;DHT22;6216;51.146;7.008;2022-07-11T11:31:57;22.30;99.90
12307;DHT22;6216;51.146;7.008;2022-07-11T11:34:26;22.40;99.90
12307;DHT22;6216;51.146;7.008;2022-07-11T11:36:55;22.50;99.90
12307;DHT22;6216;51.146;7.008;2022-07-11T11:39:26;22.60;99.90
12307;DHT22;6216;51.146;7.008;2022-07-11T11:42:00;22.80;99.90
12307;DHT22;6216;51.146;7.008;2022-07-11T11:44:29;22.90;99.90
12307;DHT22;6216;51.146;7.008;2022-07-11T11:46:57;22.90;99.90
12307;DHT22;6216;51.146;7.008;2022-07-11T11:49:25;22.90;99.90
12307;DHT22;6216;51.146;7.008;2022-07-11T11:51:54;22.80;99.90
12307;DHT22;6216;51.146;7.008;2022-07-11T11:54:24;22.90;99.90
12307;DHT22;6216;51.146;7.008;2022-07-11T11:56:52;22.80;99.90
12307;DHT22;6216;51.146;7.008;2022-07-11T11:59:30;22.90;99.90
12307;DHT22;6216;51.146;7.008;2022-07-11T12:01:58;22.90;99.90
12307;DHT22;6216;51.146;7.008;2022-07-11T12:04:30;23.00;99.90
12307;DHT22;6216;51.146;7.008;2022-07-11T12:06:59;23.00;99.90
12307;DHT22;6216;51.146;7.008;2022-07-11T12:09:28;23.20;99.90
12307;DHT22;6216;51.146;7.008;2022-07-11T12:12:17;23.40;99.90
12307;DHT22;6216;51.146;7.008;2022-07-11T12:15:06;23.40;99.90
12307;DHT22;6216;51.146;7.008;2022-07-11T12:17:35;23.40;99.90
12307;DHT22;6216;51.146;7.008;2022-07-11T12:20:04;23.40;99.90
12307;DHT22;6216;51.146;7.008;2022-07-11T12:22:41;23.40;99.90
12307;DHT22;6216;51.146;7.008;2022-07-11T12:25:10;23.50;99.90
12307;DHT22;6216;51.146;7.008;2022-07-11T12:27:38;23.60;99.90
12307;DHT22;6216;51.146;7.008;2022-07-11T12:30:21;23.70;99.90
12307;DHT22;6216;51.146;7.008;2022-07-11T12:33:02;23.90;99.90
12307;DHT22;6216;51.146;7.008;2022-07-11T12:35:30;24.00;99.90
12307;DHT22;6216;51.146;7.008;2022-07-11T12:37:58;24.00;99.90
12307;DHT22;6216;51.146;7.008;2022-07-11T12:40:26;24.20;99.90
12307;DHT22;6216;51.146;7.008;2022-07-11T12:42:54;24.30;99.90
12307;DHT22;6216;51.146;7.008;2022-07-11T12:45:23;24.40;99.90
12307;DHT22;6216;51.146;7.008;2022-07-11T12:47:51;24.40;99.90
12307;DHT22;6216;51.146;7.008;2022-07-11T12:50:22;24.30;99.90
12307;DHT22;6216;51.146;7.008;2022-07-11T12:52:52;24.10;99.90
12307;DHT22;6216;51.146;7.008;2022-07-11T12:55:23;24.10;99.90
12307;DHT22;6216;51.146;7.008;2022-07-11T12:58:05;24.00;99.90
12307;DHT22;6216;51.146;7.008;2022-07-11T13:01:00;24.00;99.90
12307;DHT22;6216;51.146;7.008;2022-07-11T13:03:43;23.80;99.90
12307;DHT22;6216;51.146;7.008;2022-07-11T13:06:40;23.70;99.90
12307;DHT22;6216;51.146;7.008;2022-07-11T13:09:29;23.70;99.90
12307;DHT22;6216;51.146;7.008;2022-07-11T13:12:09;23.60;99.90
12307;DHT22;6216;51.146;7.008;2022-07-11T13:14:45;23.60;99.90
12307;DHT22;6216;51.146;7.008;2022-07-11T13:17:36;23.70;99.90
12307;DHT22;6216;51.146;7.008;2022-07-11T13:20:08;23.80;99.90
12307;DHT22;6216;51.146;7.008;2022-07-11T13:22:38;23.80;99.90
12307;DHT22;6216;51.146;7.008;2022-07-11T13:25:18;23.80;99.90
12307;DHT22;6216;51.146;7.008;2022-07-11T13:27:54;23.70;99.90
12307;DHT22;6216;51.146;7.008;2022-07-11T13:30:28;23.70;99.90
12307;DHT22;6216;51.146;7.008;2022-07-11T13:33:35;23.70;99.90
12307;DHT22;6216;51.146;7.008;2022-07-11T13:36:13;23.60;99.90
12307;DHT22;6216;51.146;7.008;2022-07-11T13:38:47;23.50;99.90
12307;DHT22;6216;51.146;7.008;2022-07-11T13:41:16;23.40;99.90
12307;DHT22;6216;51.146;7.008;2022-07-11T13:43:44;23.50;99.90
12307;DHT22;6216;51.146;7.008;2022-07-11T13:46:12;23.50;99.90
12307;DHT22;6216;51.146;7.008;2022-07-11T13:48:42;23.40;99.90
12307;DHT22;6216;51.146;7.008;2022-07-11T13:51:10;23.40;99.90
12307;DHT22;6216;51.146;7.008;2022-07-11T13:53:38;23.50;99.90
12307;DHT22;6216;51.146;7.008;2022-07-11T13:56:36;23.60;99.90
12307;DHT22;6216;51.146;7.008;2022-07-11T13:59:04;23.60;99.90
12307;DHT22;6216;51.146;7.008;2022-07-11T14:01:35;23.70;99.90
12307;DHT22;6216;51.146;7.008;2022-07-11T14:04:15;23.80;99.90
12307;DHT22;6216;51.146;7.008;2022-07-11T14:06:51;24.00;99.90
12307;DHT22;6216;51.146;7.008;2022-07-11T14:09:21;24.20;99.90
12307;DHT22;6216;51.146;7.008;2022-07-11T14:11:50;24.20;99.90
12307;DHT22;6216;51.146;7.008;2022-07-11T14:14:23;24.30;99.90
12307;DHT22;6216;51.146;7.008;2022-07-11T14:16:55;24.30;99.90
12307;DHT22;6216;51.146;7.008;2022-07-11T14:19:34;24.30;99.90
12307;DHT22;6216;51.146;7.008;2022-07-11T14:22:06;24.20;99.90
12307;DHT22;6216;51.146;7.008;2022-07-11T14:24:36;24.30;99.90
12307;DHT22;6216;51.146;7.008;2022-07-11T14:27:15;24.20;99.90
12307;DHT22;6216;51.146;7.008;2022-07-11T14:29:56;24.10;99.90
12307;DHT22;6216;51.146;7.008;2022-07-11T14:32:27;24.00;99.90
12307;DHT22;6216;51.146;7.008;2022-07-11T14:34:57;23.90;99.90
12307;DHT22;6216;51.146;7.008;2022-07-11T14:37:25;23.80;99.90
12307;DHT22;6216;51.146;7.008;2022-07-11T14:40:14;23.70;99.90
12307;DHT22;6216;51.146;7.008;2022-07-11T14:42:55;23.60;99.90
12307;DHT22;6216;51.146;7.008;2022-07-11T14:45:30;23.50;99.90
12307;DHT22;6216;51.146;7.008;2022-07-11T14:48:09;23.50;99.90
12307;DHT22;6216;51.146;7.008;2022-07-11T14:50:39;23.50;99.90
12307;DHT22;6216;51.146;7.008;2022-07-11T14:53:09;23.50;99.90
12307;DHT22;6216;51.146;7.008;2022-07-11T14:55:37;23.60;99.90
12307;DHT22;6216;51.146;7.008;2022-07-11T14:58:05;23.40;99.90
12307;DHT22;6216;51.146;7.008;2022-07-11T15:00:33;23.50;99.90
12307;DHT22;6216;51.146;7.008;2022-07-11T15:03:06;23.60;99.90
12307;DHT22;6216;51.146;7.008;2022-07-11T15:05:53;23.60;99.90
12307;DHT22;6216;51.146;7.008;2022-07-11T15:08:21;23.70;99.90
12307;DHT22;6216;51.146;7.008;2022-07-11T15:11:07;23.60;99.90
12307;DHT22;6216;51.146;7.008;2022-07-11T15:14:03;23.60;99.90
12307;DHT22;6216;51.146;7.008;2022-07-11T15:16:40;23.50;99.90
12307;DHT22;6216;51.146;7.008;2022-07-11T15:19:25;23.50;99.90
12307;DHT22;6216;51.146;7.008;2022-07-11T15:21:55;23.60;99.90
12307;DHT22;6216;51.146;7.008;2022-07-11T15:24:22;23.50;99.90
12307;DHT22;6216;51.146;7.008;2022-07-11T15:26:50;23.60;99.90
12307;DHT22;6216;51.146;7.008;2022-07-11T15:29:19;23.70;99.90
12307;DHT22;6216;51.146;7.008;2022-07-11T15:31:47;23.90;99.90
12307;DHT22;6216;51.146;7.008;2022-07-11T15:34:15;23.90;99.90
12307;DHT22;6216;51.146;7.008;2022-07-11T15:36:43;23.90;99.90
12307;DHT22;6216;51.146;7.008;2022-07-11T15:39:12;24.00;99.90
12307;DHT22;6216;51.146;7.008;2022-07-11T15:41:40;23.90;99.90
12307;DHT22;6216;51.146;7.008;2022-07-11T15:44:09;23.90;99.90
12307;DHT22;6216;51.146;7.008;2022-07-11T15:46:38;23.90;99.90
12307;DHT22;6216;51.146;7.008;2022-07-11T15:49:22;23.90;99.90
12307;DHT22;6216;51.146;7.008;2022-07-11T15:52:10;23.80;99.90
12307;DHT22;6216;51.146;7.008;2022-07-11T15:54:39;23.90;99.90
12307;DHT22;6216;51.146;7.008;2022-07-11T15:57:07;23.90;99.90
12307;DHT22;6216;51.146;7.008;2022-07-11T15:59:35;23.90;99.90
12307;DHT22;6216;51.146;7.008;2022-07-11T16:02:03;23.90;99.90
12307;DHT22;6216;51.146;7.008;2022-07-11T16:04:31;23.70;99.90
12307;DHT22;6216;51.146;7.008;2022-07-11T16:07:02;23.60;99.90
12307;DHT22;6216;51.146;7.008;2022-07-11T16:09:30;23.60;99.90
12307;DHT22;6216;51.146;7.008;2022-07-11T16:11:59;23.60;99.90
12307;DHT22;6216;51.146;7.008;2022-07-11T16:14:27;23.60;99.90
12307;DHT22;6216;51.146;7.008;2022-07-11T16:16:55;23.60;99.90